This is the latest recevied weather packets stored in our database for station/object K2ATL. If no packets are shown the sender has not sent any weather packets the latest 10 day(s).
| Time | Temp. | Humidity | Pressure | Rain* | Wind** | Luminosity | Snow |
|---|---|---|---|---|---|---|---|
| 1788139532 | 24.44° C | 81% | 1107.1 hPa | 0 mm | - | 0 W/m² | - |
| 1788139227 | 24.44° C | 81% | 1106.9 hPa | 0 mm | - | 0 W/m² | - |
| 1788138927 | 24.44° C | 81% | 1106.9 hPa | 0 mm | - | 0 W/m² | - |
| 1788138622 | 25° C | 81% | 1106.7 hPa | 0 mm | - | 0 W/m² | - |
| 1788138322 | 25° C | 80% | 1106.8 hPa | 0 mm | - | 0 W/m² | - |
| 1788138019 | 25° C | 80% | 1106.5 hPa | 0 mm | - | 0 W/m² | - |
| 1788137714 | 25° C | 80% | 1106.6 hPa | 0 mm | - | 0 W/m² | - |
| 1788137413 | 25° C | 80% | 1106.6 hPa | 0 mm | - | 0 W/m² | - |
| 1788137110 | 25° C | 81% | 1106.6 hPa | 0 mm | - | 0 W/m² | - |
| 1788136805 | 25° C | 81% | 1106.6 hPa | 0 mm | - | 0 W/m² | - |
| 1788136501 | 25° C | 82% | 1106.6 hPa | 0 mm | - | 0 W/m² | - |
| 1788136201 | 25° C | 82% | 1106.5 hPa | 0 mm | - | 0 W/m² | - |
| 1788135900 | 25° C | 82% | 1106.4 hPa | 0 mm | - | 0 W/m² | - |
| 1788135595 | 25.56° C | 81% | 1106.5 hPa | 0 mm | - | 0 W/m² | - |
| 1788135290 | 25.56° C | 79% | 1106.4 hPa | 0 mm | - | 1 W/m² | - |
| 1788134987 | 25.56° C | 79% | 1106.2 hPa | 0 mm | - | 2 W/m² | - |
| 1788134683 | 26.11° C | 77% | 1106.3 hPa | 0 mm | - | 4 W/m² | - |
| 1788134381 | 26.11° C | 76% | 1106.4 hPa | 0 mm | - | 6 W/m² | - |
| 1788134076 | 27.22° C | 75% | 1106.3 hPa | 0 mm | - | 9 W/m² | - |
| 1788133772 | 28.33° C | 70% | 1106.2 hPa | 0 mm | - | 13 W/m² | - |
| 1788133467 | 29.44° C | 68% | 1106.3 hPa | 0 mm | - | 18 W/m² | - |
| 1788133162 | 28.89° C | 70% | 1106.3 hPa | 0 mm | - | 25 W/m² | - |
| 1788132858 | 28.89° C | 70% | 1106.4 hPa | 0 mm | - | 24 W/m² | - |
| 1788132553 | 30° C | 68% | 1106.3 hPa | 0 mm | - | 28 W/m² | - |
| 1788132249 | 30° C | 67% | 1106.3 hPa | 0 mm | - | 33 W/m² | - |
* Rain latest hour (hover to see other rain measurements)
** Current wind speed in m/s (hover to see current wind gust speed)